createdAt,value
2023-03-30T00:01:26.917Z,-0.90
2023-03-30T00:03:55.608Z,-0.90
2023-03-30T00:06:23.611Z,-0.90
2023-03-30T00:08:59.588Z,-0.80
2023-03-30T00:11:28.262Z,-0.80
2023-03-30T00:13:55.535Z,-0.80
2023-03-30T00:16:23.921Z,-0.80
2023-03-30T00:18:52.290Z,-0.80
2023-03-30T00:21:42.128Z,-0.70
2023-03-30T00:24:12.535Z,-0.70
2023-03-30T00:26:39.504Z,-0.70
2023-03-30T00:29:06.425Z,-0.70
2023-03-30T00:31:33.385Z,-0.70
2023-03-30T00:34:00.555Z,-0.70
2023-03-30T00:36:27.573Z,-0.70
2023-03-30T00:38:54.449Z,-0.70
2023-03-30T00:41:21.838Z,-0.70
2023-03-30T00:44:03.290Z,-0.80
2023-03-30T00:46:31.778Z,-0.80
2023-03-30T00:49:05.439Z,-0.80
2023-03-30T00:51:38.207Z,-0.80
2023-03-30T00:54:13.921Z,-0.80
2023-03-30T00:56:41.405Z,-0.80
2023-03-30T00:59:09.354Z,-0.80
2023-03-30T01:01:39.400Z,-0.90
2023-03-30T01:04:09.991Z,-0.90
2023-03-30T01:06:40.579Z,-0.90
2023-03-30T01:09:08.682Z,-1.00
2023-03-30T01:11:35.792Z,-1.00
2023-03-30T01:14:08.529Z,-1.00
2023-03-30T01:17:04.448Z,-1.00
2023-03-30T01:20:12.768Z,-1.10
2023-03-30T01:23:18.820Z,-1.10
2023-03-30T01:26:03.681Z,-1.00
2023-03-30T01:28:35.896Z,-1.10
2023-03-30T01:31:06.110Z,-1.10
2023-03-30T01:33:53.862Z,-1.00
2023-03-30T01:36:38.810Z,-1.10
2023-03-30T01:39:31.274Z,-1.10
2023-03-30T01:42:27.887Z,-1.00
2023-03-30T01:45:07.138Z,-1.10
2023-03-30T01:47:37.895Z,-1.10
2023-03-30T01:50:24.454Z,-1.10
2023-03-30T01:53:03.909Z,-1.10
2023-03-30T01:55:58.397Z,-1.10
2023-03-30T01:58:49.128Z,-1.10
2023-03-30T02:01:20.534Z,-1.10
2023-03-30T02:03:53.566Z,-1.10
2023-03-30T02:06:24.655Z,-1.10
2023-03-30T02:08:54.599Z,-1.10
2023-03-30T02:11:23.997Z,-1.10
2023-03-30T02:13:53.006Z,-1.10
2023-03-30T02:16:25.070Z,-1.10
2023-03-30T02:18:54.652Z,-1.00
2023-03-30T02:21:22.530Z,-1.00
2023-03-30T02:23:52.691Z,-1.00
2023-03-30T02:26:19.849Z,-1.00
2023-03-30T02:28:47.605Z,-1.00
2023-03-30T02:31:17.006Z,-1.00
2023-03-30T02:34:05.100Z,-1.00
2023-03-30T02:36:37.625Z,-1.00
2023-03-30T02:39:26.892Z,-1.00
2023-03-30T02:42:02.313Z,-1.00
2023-03-30T02:45:00.811Z,-0.90
2023-03-30T02:48:06.133Z,-0.90
2023-03-30T02:50:51.120Z,-0.90
2023-03-30T02:53:20.909Z,-0.90
2023-03-30T02:56:12.748Z,-0.90
2023-03-30T02:58:55.337Z,-0.80
2023-03-30T03:01:25.047Z,-0.80
2023-03-30T03:03:54.171Z,-0.80
2023-03-30T03:06:21.531Z,-0.80
2023-03-30T03:08:48.431Z,-0.80
2023-03-30T03:11:15.869Z,-0.70
2023-03-30T03:13:43.100Z,-0.70
2023-03-30T03:16:12.339Z,-0.70
2023-03-30T03:18:40.517Z,-0.70
2023-03-30T03:21:11.560Z,-0.60
2023-03-30T03:23:38.823Z,-0.60
2023-03-30T03:26:07.571Z,-0.60
2023-03-30T03:28:34.953Z,-0.50
2023-03-30T03:31:02.829Z,-0.50
2023-03-30T03:33:32.003Z,-0.50
2023-03-30T03:36:00.576Z,-0.50
2023-03-30T03:38:28.757Z,-0.50
2023-03-30T03:40:57.802Z,-0.40
2023-03-30T03:43:25.732Z,-0.30
2023-03-30T03:45:53.581Z,-0.30
2023-03-30T03:48:23.154Z,-0.30
2023-03-30T03:50:52.595Z,-0.20
2023-03-30T03:53:20.616Z,-0.20
2023-03-30T03:55:47.577Z,-0.20
2023-03-30T03:58:16.102Z,-0.20
2023-03-30T04:00:43.656Z,-0.10
2023-03-30T04:03:17.605Z,-0.10
2023-03-30T04:05:44.788Z,-0.10
2023-03-30T04:08:12.050Z,-0.10
2023-03-30T04:10:41.203Z,-0.10
2023-03-30T04:13:09.539Z,0.00
2023-03-30T04:15:37.906Z,0.00
2023-03-30T04:18:05.480Z,0.10
2023-03-30T04:20:33.530Z,0.10
2023-03-30T04:23:10.003Z,0.10
2023-03-30T04:25:36.940Z,0.10
2023-03-30T04:28:05.300Z,0.20
2023-03-30T04:30:32.906Z,0.20
2023-03-30T04:33:03.447Z,0.20
2023-03-30T04:35:32.447Z,0.20
2023-03-30T04:38:00.583Z,0.30
2023-03-30T04:40:28.025Z,0.30
2023-03-30T04:42:55.390Z,0.20
2023-03-30T04:45:22.339Z,0.30
2023-03-30T04:47:49.341Z,0.30
2023-03-30T04:50:16.668Z,0.30
2023-03-30T04:52:43.664Z,0.40
2023-03-30T04:55:11.779Z,0.40
2023-03-30T04:57:38.711Z,0.40
2023-03-30T05:00:08.227Z,0.50
2023-03-30T05:02:36.032Z,0.50
2023-03-30T05:05:03.012Z,0.50
2023-03-30T05:07:29.899Z,0.60
2023-03-30T05:09:56.737Z,0.60
2023-03-30T05:12:23.658Z,0.60
2023-03-30T05:14:50.511Z,0.60
2023-03-30T05:17:17.465Z,0.70
2023-03-30T05:19:44.484Z,0.70
2023-03-30T05:22:11.620Z,0.70
2023-03-30T05:24:38.619Z,0.80
2023-03-30T05:27:07.026Z,0.80
2023-03-30T05:29:34.111Z,0.80
2023-03-30T05:32:01.085Z,0.80
2023-03-30T05:34:28.089Z,0.80
2023-03-30T05:36:55.420Z,0.90
2023-03-30T05:39:23.425Z,0.90
2023-03-30T05:41:51.127Z,0.90
2023-03-30T05:44:20.600Z,0.90
2023-03-30T05:46:48.890Z,0.90
2023-03-30T05:49:16.000Z,1.00
2023-03-30T05:51:42.968Z,1.00
2023-03-30T05:54:14.017Z,1.00
2023-03-30T05:56:42.616Z,1.10
2023-03-30T05:59:10.452Z,1.20
2023-03-30T06:01:37.751Z,1.30
2023-03-30T06:04:05.307Z,1.30
2023-03-30T06:06:32.523Z,1.30
2023-03-30T06:09:00.005Z,1.30
2023-03-30T06:11:28.326Z,1.40
2023-03-30T06:13:55.319Z,1.40
2023-03-30T06:16:22.404Z,1.50
2023-03-30T06:18:49.397Z,1.50
2023-03-30T06:21:16.445Z,1.50
2023-03-30T06:23:43.465Z,1.60
2023-03-30T06:26:10.848Z,1.60
2023-03-30T06:28:38.216Z,1.70
2023-03-30T06:31:09.595Z,1.70
2023-03-30T06:33:38.389Z,1.70
2023-03-30T06:36:12.361Z,1.80
2023-03-30T06:38:39.672Z,1.80
2023-03-30T06:41:10.043Z,1.80
2023-03-30T06:43:37.567Z,1.80
2023-03-30T06:46:05.233Z,1.80
2023-03-30T06:48:32.157Z,1.80
2023-03-30T06:50:59.407Z,1.80
2023-03-30T06:53:26.646Z,1.80
2023-03-30T06:55:56.148Z,1.80
2023-03-30T06:58:24.839Z,1.80
2023-03-30T07:00:51.912Z,1.80
2023-03-30T07:03:22.614Z,1.90
2023-03-30T07:05:52.023Z,1.90
2023-03-30T07:08:22.251Z,2.00
2023-03-30T07:10:49.856Z,2.10
2023-03-30T07:13:18.140Z,2.10
2023-03-30T07:15:46.183Z,2.20
2023-03-30T07:18:13.831Z,2.20
2023-03-30T07:20:40.741Z,2.20
2023-03-30T07:23:07.966Z,2.20
2023-03-30T07:25:35.015Z,2.20
2023-03-30T07:28:02.325Z,2.30
2023-03-30T07:30:31.629Z,2.30
2023-03-30T07:32:58.957Z,2.30
2023-03-30T07:35:26.330Z,2.30
2023-03-30T07:38:02.364Z,2.30
2023-03-30T07:40:31.189Z,2.30
2023-03-30T07:42:58.555Z,2.40
2023-03-30T07:45:25.732Z,2.40
2023-03-30T07:47:54.459Z,2.50
2023-03-30T07:50:21.722Z,2.50
2023-03-30T07:52:51.636Z,2.50
2023-03-30T07:55:21.382Z,2.50
2023-03-30T07:57:53.634Z,2.50
2023-03-30T08:00:22.381Z,2.40
2023-03-30T08:02:50.296Z,2.40
2023-03-30T08:05:30.179Z,2.40
2023-03-30T08:08:01.050Z,2.40
2023-03-30T08:10:28.546Z,2.40
2023-03-30T08:12:55.970Z,2.40
2023-03-30T08:15:22.969Z,2.40
2023-03-30T08:17:59.046Z,2.40
2023-03-30T08:20:26.220Z,2.50
2023-03-30T08:22:55.040Z,2.50
2023-03-30T08:25:22.304Z,2.60
2023-03-30T08:27:53.452Z,2.60
2023-03-30T08:30:24.797Z,2.70
2023-03-30T08:32:53.771Z,2.70
2023-03-30T08:35:29.987Z,2.70
2023-03-30T08:37:57.263Z,2.60
2023-03-30T08:40:27.387Z,2.60
2023-03-30T08:43:43.601Z,2.60
2023-03-30T08:46:17.292Z,2.50
2023-03-30T08:48:48.839Z,2.60
2023-03-30T08:51:22.952Z,2.60
2023-03-30T08:54:21.122Z,2.70
2023-03-30T08:57:21.187Z,2.70
2023-03-30T09:00:12.915Z,2.70
2023-03-30T09:03:18.635Z,2.80
2023-03-30T09:05:55.446Z,2.90
2023-03-30T09:08:29.038Z,3.00
2023-03-30T09:11:02.430Z,3.20
2023-03-30T09:13:38.091Z,3.40
2023-03-30T09:16:20.661Z,3.70
2023-03-30T09:18:53.514Z,3.90
2023-03-30T09:21:23.562Z,4.00
2023-03-30T09:23:58.897Z,4.00
2023-03-30T09:26:43.762Z,4.00
2023-03-30T09:29:19.395Z,4.10
2023-03-30T09:32:19.843Z,4.10
2023-03-30T09:35:00.211Z,4.30
2023-03-30T09:37:28.484Z,4.40
2023-03-30T09:39:55.510Z,4.50
2023-03-30T09:42:51.561Z,4.50
2023-03-30T09:45:28.243Z,4.70
2023-03-30T09:48:09.080Z,4.80
2023-03-30T09:50:42.644Z,4.90
2023-03-30T09:53:29.898Z,5.10
2023-03-30T09:56:18.770Z,5.00
2023-03-30T09:58:49.156Z,5.00
2023-03-30T10:01:22.197Z,4.90
2023-03-30T10:04:21.613Z,4.90
2023-03-30T10:06:54.836Z,5.00
2023-03-30T10:09:24.210Z,5.00
2023-03-30T10:11:53.120Z,5.20
2023-03-30T10:14:32.690Z,5.20
2023-03-30T10:17:00.919Z,5.30
2023-03-30T10:19:30.912Z,5.30
2023-03-30T10:22:04.253Z,5.40
2023-03-30T10:24:34.240Z,5.50
2023-03-30T10:27:33.940Z,5.60
2023-03-30T10:30:10.396Z,5.60
2023-03-30T10:32:37.994Z,5.70
2023-03-30T10:35:10.275Z,5.70
2023-03-30T10:37:45.255Z,5.80
2023-03-30T10:40:34.372Z,5.90
2023-03-30T10:43:02.565Z,6.00
2023-03-30T10:45:38.107Z,6.10
2023-03-30T10:48:28.906Z,6.10
2023-03-30T10:50:56.137Z,6.10
2023-03-30T10:53:42.067Z,6.00
2023-03-30T10:56:42.898Z,5.80
2023-03-30T10:59:33.205Z,5.80
2023-03-30T11:02:18.904Z,5.80
2023-03-30T11:04:49.674Z,5.90
2023-03-30T11:07:36.144Z,5.90
2023-03-30T11:10:22.391Z,5.80
2023-03-30T11:12:58.836Z,5.70
2023-03-30T11:15:33.398Z,5.80
2023-03-30T11:18:09.377Z,6.00
2023-03-30T11:20:43.552Z,6.20
2023-03-30T11:23:28.200Z,6.30
2023-03-30T11:26:03.155Z,6.30
2023-03-30T11:28:58.234Z,6.20
2023-03-30T11:31:43.527Z,6.20
2023-03-30T11:34:31.902Z,6.20
2023-03-30T11:37:13.771Z,6.30
2023-03-30T11:39:50.655Z,6.50
2023-03-30T11:42:27.215Z,6.60
2023-03-30T11:44:54.386Z,6.60
2023-03-30T11:47:27.260Z,6.60
2023-03-30T11:49:54.257Z,6.70
2023-03-30T11:52:48.428Z,6.60
2023-03-30T11:55:24.196Z,6.40
2023-03-30T11:57:59.994Z,6.10
2023-03-30T12:00:32.925Z,5.90
2023-03-30T12:03:31.379Z,5.80
2023-03-30T12:06:21.281Z,5.80
2023-03-30T12:09:13.878Z,5.90
2023-03-30T12:11:49.926Z,5.90
2023-03-30T12:14:34.641Z,6.00
2023-03-30T12:17:49.613Z,6.20
2023-03-30T12:20:25.620Z,6.40
2023-03-30T12:23:19.053Z,6.60
2023-03-30T12:26:04.524Z,6.60
2023-03-30T12:29:56.346Z,6.60
2023-03-30T12:31:59.380Z,6.60
2023-03-30T12:34:28.649Z,6.50
2023-03-30T12:37:14.985Z,6.40
2023-03-30T12:40:10.766Z,6.20
2023-03-30T12:42:46.367Z,6.20
2023-03-30T12:45:21.210Z,6.20
2023-03-30T12:47:53.577Z,6.30
2023-03-30T12:51:07.571Z,6.30
2023-03-30T12:54:01.947Z,6.40
2023-03-30T12:56:49.633Z,6.60
2023-03-30T12:59:43.481Z,6.70
2023-03-30T13:02:37.396Z,6.60
2023-03-30T13:05:16.869Z,6.60
2023-03-30T13:07:44.251Z,6.70
2023-03-30T13:10:29.368Z,6.70
2023-03-30T13:13:01.516Z,6.70
2023-03-30T13:15:40.066Z,6.70
2023-03-30T13:18:09.723Z,6.70
2023-03-30T13:20:46.859Z,6.50
2023-03-30T13:23:13.690Z,6.50
2023-03-30T13:25:49.166Z,6.50
2023-03-30T13:28:36.898Z,6.50
2023-03-30T13:31:36.540Z,6.40
2023-03-30T13:34:26.489Z,6.40
2023-03-30T13:37:16.402Z,6.40
2023-03-30T13:39:54.173Z,6.30
2023-03-30T13:42:21.306Z,6.10
2023-03-30T13:45:10.964Z,6.00
2023-03-30T13:47:48.009Z,5.90
2023-03-30T13:50:27.400Z,5.80
2023-03-30T13:52:57.581Z,5.70
2023-03-30T13:55:41.955Z,5.70
2023-03-30T13:58:19.803Z,5.80
2023-03-30T14:00:49.911Z,5.80
2023-03-30T14:03:41.908Z,5.80
2023-03-30T14:06:18.150Z,5.80
2023-03-30T14:08:48.028Z,5.80
2023-03-30T14:11:26.562Z,5.80
2023-03-30T14:13:53.975Z,5.70
2023-03-30T14:16:26.806Z,5.80
2023-03-30T14:19:08.231Z,5.70
2023-03-30T14:21:37.786Z,5.60
2023-03-30T14:24:05.525Z,5.50
2023-03-30T14:26:32.553Z,5.50
2023-03-30T14:29:04.505Z,5.50
2023-03-30T14:31:42.401Z,5.40
2023-03-30T14:34:47.147Z,5.50
2023-03-30T14:37:14.261Z,5.60
2023-03-30T14:39:48.364Z,5.70
2023-03-30T14:42:26.207Z,5.70
2023-03-30T14:44:55.704Z,5.70
2023-03-30T14:47:27.685Z,5.70
2023-03-30T14:50:04.690Z,5.70
2023-03-30T14:52:38.026Z,5.70
2023-03-30T14:55:12.646Z,5.70
2023-03-30T14:57:44.295Z,5.60
2023-03-30T15:00:21.319Z,5.50
2023-03-30T15:02:57.822Z,5.50
2023-03-30T15:05:30.733Z,5.40
2023-03-30T15:07:57.676Z,5.40
2023-03-30T15:10:45.827Z,5.30
2023-03-30T15:13:35.753Z,5.30
2023-03-30T15:16:05.408Z,5.20
2023-03-30T15:18:35.846Z,5.20
2023-03-30T15:21:03.087Z,5.20
2023-03-30T15:23:38.251Z,5.20
2023-03-30T15:26:07.169Z,5.10
2023-03-30T15:28:45.291Z,5.10
2023-03-30T15:31:15.804Z,5.00
2023-03-30T15:33:52.762Z,5.00
2023-03-30T15:36:24.810Z,5.00
2023-03-30T15:38:58.762Z,4.90
2023-03-30T15:41:47.800Z,4.90
2023-03-30T15:44:22.392Z,4.90
2023-03-30T15:46:51.295Z,4.90
2023-03-30T15:49:22.595Z,4.90
2023-03-30T15:51:55.589Z,4.90
2023-03-30T15:54:39.772Z,4.90
2023-03-30T15:57:21.194Z,5.00
2023-03-30T16:00:05.607Z,4.90
2023-03-30T16:02:32.579Z,4.90
2023-03-30T16:05:03.421Z,4.90
2023-03-30T16:07:32.530Z,4.80
2023-03-30T16:09:59.436Z,4.80
2023-03-30T16:12:28.917Z,4.70
2023-03-30T16:14:56.839Z,4.70
2023-03-30T16:17:23.815Z,4.60
2023-03-30T16:19:50.673Z,4.50
2023-03-30T16:22:22.547Z,4.50
2023-03-30T16:24:50.382Z,4.40
2023-03-30T16:27:17.280Z,4.40
2023-03-30T16:29:44.214Z,4.40
2023-03-30T16:32:11.171Z,4.30
2023-03-30T16:34:38.469Z,4.30
2023-03-30T16:37:05.914Z,4.20
2023-03-30T16:39:32.795Z,4.30
2023-03-30T16:42:00.356Z,4.20
2023-03-30T16:44:27.316Z,4.20
2023-03-30T16:46:54.206Z,4.20
2023-03-30T16:49:23.595Z,4.20
2023-03-30T16:51:53.764Z,4.10
2023-03-30T16:54:31.151Z,4.10
2023-03-30T16:57:01.678Z,4.00
2023-03-30T16:59:30.678Z,3.90
2023-03-30T17:01:58.381Z,3.90
2023-03-30T17:04:25.703Z,3.90
2023-03-30T17:06:54.678Z,3.80
2023-03-30T17:09:21.781Z,3.80
2023-03-30T17:11:49.304Z,3.80
2023-03-30T17:14:16.608Z,3.80
2023-03-30T17:16:43.544Z,3.80
2023-03-30T17:19:13.222Z,3.80
2023-03-30T17:21:44.001Z,3.80
2023-03-30T17:24:12.844Z,3.80
2023-03-30T17:26:40.723Z,3.80
2023-03-30T17:29:07.632Z,3.90
2023-03-30T17:31:34.691Z,3.80
2023-03-30T17:34:01.674Z,3.80
2023-03-30T17:36:31.566Z,3.80
2023-03-30T17:38:59.865Z,3.80
2023-03-30T17:41:26.936Z,3.80
2023-03-30T17:43:54.246Z,3.80
2023-03-30T17:46:21.445Z,3.80
2023-03-30T17:48:51.261Z,3.80
2023-03-30T17:51:18.663Z,3.80
2023-03-30T17:53:45.802Z,3.70
2023-03-30T17:56:13.842Z,3.60
2023-03-30T17:58:41.023Z,3.60
2023-03-30T18:01:09.965Z,3.50
2023-03-30T18:03:39.438Z,3.50
2023-03-30T18:06:07.344Z,3.50
2023-03-30T18:08:34.728Z,3.40
2023-03-30T18:11:02.200Z,3.40
2023-03-30T18:13:30.655Z,3.40
2023-03-30T18:15:59.462Z,3.30
2023-03-30T18:18:30.023Z,3.20
2023-03-30T18:21:05.585Z,3.20
2023-03-30T18:23:37.633Z,3.10
2023-03-30T18:26:12.211Z,3.10
2023-03-30T18:28:42.577Z,3.10
2023-03-30T18:31:09.704Z,3.10
2023-03-30T18:33:36.746Z,3.20
2023-03-30T18:36:08.030Z,3.20
2023-03-30T18:38:35.432Z,3.20
2023-03-30T18:41:02.433Z,3.20
2023-03-30T18:43:29.823Z,3.20
2023-03-30T18:46:01.502Z,3.20
2023-03-30T18:48:29.152Z,3.10
2023-03-30T18:50:56.869Z,3.20
2023-03-30T18:53:26.235Z,3.20
2023-03-30T18:55:57.296Z,3.20
2023-03-30T18:58:29.882Z,3.30
2023-03-30T19:00:57.169Z,3.40
2023-03-30T19:03:25.677Z,3.40
2023-03-30T19:05:52.812Z,3.40
2023-03-30T19:08:21.972Z,3.40
2023-03-30T19:10:51.612Z,3.40
2023-03-30T19:13:21.076Z,3.40
2023-03-30T19:15:49.537Z,3.40
2023-03-30T19:18:17.854Z,3.40
2023-03-30T19:20:45.289Z,3.30
2023-03-30T19:23:14.489Z,3.40
2023-03-30T19:25:42.326Z,3.40
2023-03-30T19:28:09.968Z,3.40
2023-03-30T19:30:39.654Z,3.30
2023-03-30T19:33:12.972Z,3.20
2023-03-30T19:35:41.483Z,3.20
2023-03-30T19:38:08.971Z,3.10
2023-03-30T19:40:38.302Z,3.10
2023-03-30T19:43:05.422Z,3.00
2023-03-30T19:45:32.362Z,2.90
2023-03-30T19:47:59.645Z,2.90
2023-03-30T19:50:27.972Z,2.90
2023-03-30T19:52:56.452Z,2.90
2023-03-30T19:55:23.733Z,2.90
2023-03-30T19:57:50.805Z,2.90
2023-03-30T20:00:19.778Z,2.90
2023-03-30T20:02:49.521Z,2.80
2023-03-30T20:05:17.683Z,2.90
2023-03-30T20:07:45.946Z,2.80
2023-03-30T20:10:17.114Z,2.80
2023-03-30T20:12:43.996Z,2.70
2023-03-30T20:15:11.596Z,2.70
2023-03-30T20:17:39.438Z,2.70
2023-03-30T20:20:09.435Z,2.70
2023-03-30T20:22:38.525Z,2.70
2023-03-30T20:25:07.899Z,2.60
2023-03-30T20:27:35.882Z,2.60
2023-03-30T20:30:04.487Z,2.60
2023-03-30T20:32:31.680Z,2.60
2023-03-30T20:34:58.722Z,2.60
2023-03-30T20:37:25.590Z,2.60
2023-03-30T20:39:52.582Z,2.60
2023-03-30T20:42:26.245Z,2.60
2023-03-30T20:44:53.654Z,2.60
2023-03-30T20:47:26.184Z,2.50
2023-03-30T20:49:56.078Z,2.50
2023-03-30T20:52:23.994Z,2.40
2023-03-30T20:54:52.555Z,2.30
2023-03-30T20:57:20.997Z,2.40
2023-03-30T20:59:48.486Z,2.40
2023-03-30T21:02:16.489Z,2.40
2023-03-30T21:04:44.671Z,2.30
2023-03-30T21:07:12.314Z,2.30
2023-03-30T21:09:40.080Z,2.30
2023-03-30T21:12:08.630Z,2.30
2023-03-30T21:14:35.613Z,2.20
2023-03-30T21:17:02.556Z,2.30
2023-03-30T21:19:29.560Z,2.20
2023-03-30T21:21:56.498Z,2.20
2023-03-30T21:24:23.421Z,2.20
2023-03-30T21:26:50.930Z,2.10
2023-03-30T21:29:18.190Z,2.10
2023-03-30T21:31:45.265Z,2.10
2023-03-30T21:34:12.729Z,2.10
2023-03-30T21:36:39.908Z,2.10
2023-03-30T21:39:06.938Z,2.10
2023-03-30T21:41:33.931Z,2.00
2023-03-30T21:44:01.443Z,2.00
2023-03-30T21:46:29.281Z,2.00
2023-03-30T21:48:56.246Z,2.00
2023-03-30T21:51:28.540Z,2.10
2023-03-30T21:53:56.678Z,2.10
2023-03-30T21:56:26.045Z,2.10
2023-03-30T21:58:52.968Z,2.10
2023-03-30T22:01:24.027Z,2.10
2023-03-30T22:03:52.071Z,2.10
2023-03-30T22:06:19.788Z,2.10
2023-03-30T22:08:47.107Z,2.00
2023-03-30T22:11:32.367Z,2.00
2023-03-30T22:13:59.259Z,2.10
2023-03-30T22:16:29.156Z,2.10
2023-03-30T22:18:56.237Z,2.00
2023-03-30T22:21:25.203Z,2.10
2023-03-30T22:23:55.042Z,2.10
2023-03-30T22:26:22.386Z,2.10
2023-03-30T22:28:49.600Z,2.10
2023-03-30T22:31:19.050Z,2.10
2023-03-30T22:33:46.302Z,2.10
2023-03-30T22:36:25.394Z,2.10
2023-03-30T22:38:53.011Z,2.10
2023-03-30T22:41:26.724Z,2.10
2023-03-30T22:43:56.261Z,2.20
2023-03-30T22:46:26.155Z,2.20
2023-03-30T22:48:56.270Z,2.20
2023-03-30T22:51:26.748Z,2.20
2023-03-30T22:53:58.798Z,2.20
2023-03-30T22:56:28.282Z,2.30
2023-03-30T22:58:55.527Z,2.30
2023-03-30T23:01:22.667Z,2.30
2023-03-30T23:03:49.674Z,2.30
2023-03-30T23:06:19.278Z,2.30
2023-03-30T23:08:48.735Z,2.30
2023-03-30T23:11:16.976Z,2.40
2023-03-30T23:13:44.080Z,2.30
2023-03-30T23:16:11.170Z,2.30
2023-03-30T23:18:38.757Z,2.30
2023-03-30T23:21:07.416Z,2.30
2023-03-30T23:23:38.305Z,2.30
2023-03-30T23:26:09.264Z,2.40
2023-03-30T23:28:41.957Z,2.40
2023-03-30T23:31:18.440Z,2.40
2023-03-30T23:33:45.939Z,2.40
2023-03-30T23:36:13.995Z,2.40
2023-03-30T23:38:41.607Z,2.40
2023-03-30T23:41:09.683Z,2.50
2023-03-30T23:43:36.573Z,2.50
2023-03-30T23:46:04.343Z,2.50
2023-03-30T23:48:31.997Z,2.50
2023-03-30T23:50:58.928Z,2.60
2023-03-30T23:53:26.614Z,2.60
2023-03-30T23:55:54.147Z,2.60
2023-03-30T23:58:21.187Z,2.60
